Terminal Aerodrome Forecast
Issued by NWS

Home | Current Version | Previous Version | Text Only | Print | Product List | Glossary On
Versions: 1 2 3 4 5 6 7 8 9 10 11 12 13 14 15 16 17 18 19 20 21
000
FTUS43 KMQT 202000 AAB
TAFIWD
TAF AMD
KIWD 202056Z 2021/2118 35010KT P6SM SCT015 OVC035
     FM210200 03010KT P6SM OVC025
     FM211500 07007KT P6SM SCT035
      AMD LTD TO CLD VIS AND WIND=

USA.gov is the U.S. government's official web portal to all federal, state and local government web resources and services.